createdAt,value
2023-05-13T00:00:54.490Z,98565.06
2023-05-13T00:03:25.115Z,98571.34
2023-05-13T00:05:52.589Z,98569.16
2023-05-13T00:08:20.150Z,98568.47
2023-05-13T00:10:48.572Z,98567.50
2023-05-13T00:13:15.395Z,98560.41
2023-05-13T00:15:45.120Z,98569.31
2023-05-13T00:18:21.203Z,98562.13
2023-05-13T00:20:47.982Z,98561.06
2023-05-13T00:23:14.681Z,98560.16
2023-05-13T00:25:46.723Z,98557.75
2023-05-13T00:28:17.016Z,98565.19
2023-05-13T00:30:47.071Z,98566.09
2023-05-13T00:33:15.157Z,98566.25
2023-05-13T00:35:43.980Z,98565.66
2023-05-13T00:38:11.694Z,98568.00
2023-05-13T00:40:39.944Z,98566.28
2023-05-13T00:43:09.679Z,98566.28
2023-05-13T00:45:38.470Z,98572.47
2023-05-13T00:48:08.487Z,98565.66
2023-05-13T00:50:34.964Z,98564.56
2023-05-13T00:53:02.485Z,98569.44
2023-05-13T00:55:28.972Z,98565.28
2023-05-13T00:58:06.262Z,98567.72
2023-05-13T01:00:32.798Z,98564.22
2023-05-13T01:03:57.510Z,98568.75
2023-05-13T01:06:29.937Z,98573.59
2023-05-13T01:09:16.168Z,98580.59
2023-05-13T01:11:44.749Z,98572.69
2023-05-13T01:14:29.290Z,98574.84
2023-05-13T01:17:00.352Z,98574.75
2023-05-13T01:19:53.036Z,98582.41
2023-05-13T01:22:21.568Z,98560.69
2023-05-13T01:24:50.958Z,98563.09
2023-05-13T01:27:18.599Z,98569.56
2023-05-13T01:29:47.531Z,98563.75
2023-05-13T01:32:18.097Z,98560.97
2023-05-13T01:34:46.933Z,98569.41
2023-05-13T01:37:14.192Z,98561.41
2023-05-13T01:39:44.420Z,98571.50
2023-05-13T01:42:13.807Z,98568.25
2023-05-13T01:44:49.164Z,98571.19
2023-05-13T01:47:17.344Z,98575.38
2023-05-13T01:49:45.432Z,98571.19
2023-05-13T01:52:11.914Z,98569.47
2023-05-13T01:54:43.399Z,98559.06
2023-05-13T01:57:11.938Z,98563.06
2023-05-13T01:59:38.712Z,98565.94
2023-05-13T02:02:13.013Z,98568.28
2023-05-13T02:04:42.165Z,98556.69
2023-05-13T02:07:11.936Z,98556.59
2023-05-13T02:09:39.284Z,98562.34
2023-05-13T02:12:08.458Z,98560.03
2023-05-13T02:14:41.358Z,98564.38
2023-05-13T02:17:08.161Z,98561.03
2023-05-13T02:19:36.184Z,98563.97
2023-05-13T02:22:03.306Z,98565.28
2023-05-13T02:24:34.444Z,98563.59
2023-05-13T02:27:04.945Z,98570.63
2023-05-13T02:29:31.282Z,98564.63
2023-05-13T02:31:57.918Z,98555.88
2023-05-13T02:34:26.981Z,98555.19
2023-05-13T02:36:53.780Z,98556.22
2023-05-13T02:39:22.232Z,98550.78
2023-05-13T02:41:48.961Z,98557.81
2023-05-13T02:44:16.632Z,98558.22
2023-05-13T02:46:44.754Z,98552.44
2023-05-13T02:49:13.432Z,98559.50
2023-05-13T02:51:44.686Z,98555.03
2023-05-13T02:56:54.062Z,98541.22
2023-05-13T02:59:21.072Z,98551.28
2023-05-13T03:01:53.322Z,98545.50
2023-05-13T03:04:19.826Z,98546.44
2023-05-13T03:06:47.465Z,98549.81
2023-05-13T03:09:19.474Z,98548.31
2023-05-13T03:11:47.903Z,98549.34
2023-05-13T03:14:17.116Z,98547.38
2023-05-13T03:16:44.918Z,98545.31
2023-05-13T03:19:14.451Z,98536.88
2023-05-13T03:21:41.014Z,98546.56
2023-05-13T03:24:13.373Z,98549.03
2023-05-13T03:26:41.328Z,98558.50
2023-05-13T03:29:11.079Z,98558.03
2023-05-13T03:31:39.697Z,98553.53
2023-05-13T03:34:07.844Z,98546.59
2023-05-13T03:36:37.029Z,98555.84
2023-05-13T03:39:03.583Z,98555.47
2023-05-13T03:41:30.439Z,98562.19
2023-05-13T03:43:59.166Z,98567.63
2023-05-13T03:46:27.424Z,98570.53
2023-05-13T03:48:57.632Z,98568.31
2023-05-13T03:51:25.032Z,98567.97
2023-05-13T03:53:53.856Z,98572.72
2023-05-13T03:56:22.618Z,98571.44
2023-05-13T03:58:50.708Z,98574.47
2023-05-13T04:01:17.390Z,98571.88
2023-05-13T04:03:46.482Z,98565.53
2023-05-13T04:06:14.557Z,98572.94
2023-05-13T04:08:41.174Z,98570.28
2023-05-13T04:11:13.604Z,98566.34
2023-05-13T04:13:41.062Z,98564.59
2023-05-13T04:16:10.147Z,98570.38
2023-05-13T04:18:37.163Z,98574.88
2023-05-13T04:21:10.189Z,98572.66
2023-05-13T04:23:36.717Z,98577.03
2023-05-13T04:26:04.525Z,98584.28
2023-05-13T04:28:32.027Z,98582.06
2023-05-13T04:31:00.396Z,98589.81
2023-05-13T04:33:27.225Z,98576.56
2023-05-13T04:35:53.780Z,98567.63
2023-05-13T04:38:23.313Z,98580.84
2023-05-13T04:40:51.556Z,98590.19
2023-05-13T04:43:22.559Z,98583.28
2023-05-13T04:45:49.272Z,98581.50
2023-05-13T04:48:17.273Z,98581.66
2023-05-13T04:50:49.484Z,98581.03
2023-05-13T04:53:16.941Z,98579.09
2023-05-13T04:55:47.562Z,98570.25
2023-05-13T04:58:14.656Z,98581.25
2023-05-13T05:00:45.336Z,98588.34
2023-05-13T05:03:12.018Z,98595.38
2023-05-13T05:05:39.965Z,98581.22
2023-05-13T05:08:10.621Z,98582.03
2023-05-13T05:10:38.373Z,98593.59
2023-05-13T05:13:06.326Z,98597.13
2023-05-13T05:15:32.801Z,98606.19
2023-05-13T05:18:02.534Z,98609.88
2023-05-13T05:20:29.508Z,98589.31
2023-05-13T05:22:56.062Z,98612.44
2023-05-13T05:25:22.626Z,98609.16
2023-05-13T05:27:51.982Z,98619.81
2023-05-13T05:30:19.553Z,98621.41
2023-05-13T05:32:46.183Z,98616.97
2023-05-13T05:35:15.753Z,98619.41
2023-05-13T05:37:43.010Z,98626.47
2023-05-13T05:40:11.278Z,98624.72
2023-05-13T05:42:40.882Z,98626.53
2023-05-13T05:45:09.327Z,98623.13
2023-05-13T05:47:40.274Z,98626.31
2023-05-13T05:50:09.250Z,98630.22
2023-05-13T05:52:36.007Z,98624.25
2023-05-13T05:55:03.467Z,98625.53
2023-05-13T05:57:30.514Z,98626.81
2023-05-13T05:59:56.981Z,98624.91
2023-05-13T06:02:23.682Z,98633.38
2023-05-13T06:04:51.553Z,98631.25
2023-05-13T06:07:24.820Z,98634.19
2023-05-13T06:09:52.314Z,98630.59
2023-05-13T06:12:20.761Z,98630.09
2023-05-13T06:14:52.649Z,98623.91
2023-05-13T06:17:21.268Z,98637.31
2023-05-13T06:19:51.625Z,98637.53
2023-05-13T06:22:20.094Z,98620.91
2023-05-13T06:24:47.883Z,98636.88
2023-05-13T06:27:16.416Z,98639.06
2023-05-13T06:29:45.510Z,98640.00
2023-05-13T06:32:12.408Z,98632.25
2023-05-13T06:34:45.838Z,98628.94
2023-05-13T06:37:23.714Z,98628.69
2023-05-13T06:39:51.402Z,98638.03
2023-05-13T06:42:18.194Z,98649.25
2023-05-13T06:44:45.938Z,98654.28
2023-05-13T06:47:16.023Z,98649.31
2023-05-13T06:49:45.072Z,98649.16
2023-05-13T06:52:12.700Z,98647.59
2023-05-13T06:54:40.834Z,98653.88
2023-05-13T06:57:08.812Z,98655.25
2023-05-13T06:59:38.535Z,98653.28
2023-05-13T07:02:09.947Z,98658.47
2023-05-13T07:04:38.367Z,98644.56
2023-05-13T07:07:07.511Z,98647.38
2023-05-13T07:09:35.217Z,98651.00
2023-05-13T07:12:03.651Z,98647.00
2023-05-13T07:14:30.219Z,98644.31
2023-05-13T07:17:01.075Z,98641.38
2023-05-13T07:19:28.166Z,98651.09
2023-05-13T07:24:36.461Z,98650.75
2023-05-13T07:27:04.921Z,98645.66
2023-05-13T07:29:32.383Z,98647.94
2023-05-13T07:32:03.551Z,98645.72
2023-05-13T07:34:30.016Z,98642.91
2023-05-13T07:37:00.786Z,98643.16
2023-05-13T07:39:29.540Z,98638.06
2023-05-13T07:41:56.347Z,98648.41
2023-05-13T07:44:22.831Z,98641.63
2023-05-13T07:46:51.431Z,98643.28
2023-05-13T07:49:20.284Z,98646.31
2023-05-13T07:51:49.984Z,98650.44
2023-05-13T07:54:17.016Z,98654.47
2023-05-13T07:56:46.549Z,98644.00
2023-05-13T07:59:14.506Z,98642.47
2023-05-13T08:01:43.741Z,98646.06
2023-05-13T08:04:10.433Z,98640.44
2023-05-13T08:06:39.643Z,98652.09
2023-05-13T08:09:09.605Z,98653.31
2023-05-13T08:11:41.079Z,98653.69
2023-05-13T08:14:07.905Z,98641.25
2023-05-13T08:16:37.637Z,98647.25
2023-05-13T08:19:05.768Z,98644.66
2023-05-13T08:21:33.879Z,98647.75
2023-05-13T08:24:04.322Z,98650.09
2023-05-13T08:26:33.597Z,98649.59
2023-05-13T08:29:00.312Z,98638.88
2023-05-13T08:31:27.418Z,98639.84
2023-05-13T08:34:06.047Z,98645.88
2023-05-13T08:36:34.999Z,98649.59
2023-05-13T08:39:23.863Z,98655.09
2023-05-13T08:41:50.432Z,98644.19
2023-05-13T08:44:18.864Z,98646.34
2023-05-13T08:47:19.863Z,98645.47
2023-05-13T08:49:48.322Z,98641.75
2023-05-13T08:52:15.060Z,98648.56
2023-05-13T08:54:46.133Z,98646.78
2023-05-13T08:57:15.559Z,98642.94
2023-05-13T08:59:42.037Z,98634.88
2023-05-13T09:02:11.493Z,98643.91
2023-05-13T09:04:41.049Z,98652.28
2023-05-13T09:07:08.094Z,98648.00
2023-05-13T09:09:35.368Z,98644.47
2023-05-13T09:12:01.920Z,98645.31
2023-05-13T09:14:31.376Z,98646.38
2023-05-13T09:16:59.397Z,98656.31
2023-05-13T09:19:26.318Z,98656.50
2023-05-13T09:21:54.187Z,98642.25
2023-05-13T09:24:21.755Z,98648.09
2023-05-13T09:26:52.485Z,98652.84
2023-05-13T09:29:26.186Z,98645.06
2023-05-13T09:31:56.627Z,98641.06
2023-05-13T09:34:35.875Z,98648.69
2023-05-13T09:37:09.924Z,98652.28
2023-05-13T09:39:46.163Z,98649.75
2023-05-13T09:42:20.658Z,98652.19
2023-05-13T09:44:51.271Z,98647.69
2023-05-13T09:47:20.031Z,98645.19
2023-05-13T09:50:00.467Z,98643.31
2023-05-13T09:52:50.320Z,98638.75
2023-05-13T09:55:18.533Z,98641.94
2023-05-13T09:57:47.809Z,98635.09
2023-05-13T10:00:24.721Z,98642.34
2023-05-13T10:02:56.101Z,98648.78
2023-05-13T10:05:22.871Z,98647.78
2023-05-13T10:07:53.282Z,98650.44
2023-05-13T10:10:19.953Z,98643.34
2023-05-13T10:12:48.501Z,98644.34
2023-05-13T10:15:17.031Z,98643.31
2023-05-13T10:17:45.117Z,98644.00
2023-05-13T10:20:13.322Z,98644.84
2023-05-13T10:22:39.828Z,98649.63
2023-05-13T10:25:08.823Z,98645.47
2023-05-13T10:27:37.496Z,98636.16
2023-05-13T10:30:10.088Z,98636.91
2023-05-13T10:32:39.150Z,98641.44
2023-05-13T10:35:21.340Z,98640.81
2023-05-13T10:38:03.706Z,98629.88
2023-05-13T10:40:48.364Z,98636.63
2023-05-13T10:43:27.005Z,98631.69
2023-05-13T10:46:05.220Z,98632.22
2023-05-13T10:48:51.290Z,98634.91
2023-05-13T10:51:18.432Z,98625.91
2023-05-13T10:53:52.704Z,98626.09
2023-05-13T10:56:23.057Z,98634.88
2023-05-13T10:59:03.421Z,98625.84
2023-05-13T11:01:39.248Z,98637.03
2023-05-13T11:04:06.069Z,98630.63
2023-05-13T11:06:37.202Z,98632.94
2023-05-13T11:09:34.776Z,98639.16
2023-05-13T11:12:05.119Z,98638.94
2023-05-13T11:14:32.630Z,98633.88
2023-05-13T11:17:12.499Z,98632.84
2023-05-13T11:19:49.908Z,98636.50
2023-05-13T11:22:20.739Z,98650.28
2023-05-13T11:25:10.046Z,98645.16
2023-05-13T11:27:40.405Z,98640.50
2023-05-13T11:30:09.423Z,98636.09
2023-05-13T11:32:59.715Z,98641.78
2023-05-13T11:35:30.449Z,98614.06
2023-05-13T11:38:00.242Z,98633.13
2023-05-13T11:40:34.949Z,98629.97
2023-05-13T11:43:01.697Z,98626.44
2023-05-13T11:45:30.105Z,98637.44
2023-05-13T11:47:57.500Z,98635.16
2023-05-13T11:50:30.830Z,98641.97
2023-05-13T11:53:06.331Z,98643.34
2023-05-13T11:55:36.511Z,98628.97
2023-05-13T11:58:05.245Z,98639.31
2023-05-13T12:00:35.459Z,98634.25
2023-05-13T12:03:09.109Z,98634.97
2023-05-13T12:05:48.858Z,98640.03
2023-05-13T12:08:16.806Z,98628.06
2023-05-13T12:10:46.399Z,98642.78
2023-05-13T12:13:14.468Z,98637.94
2023-05-13T12:15:46.558Z,98644.81
2023-05-13T12:18:16.909Z,98631.31
2023-05-13T12:20:43.626Z,98628.13
2023-05-13T12:23:14.570Z,98631.91
2023-05-13T12:25:45.537Z,98626.41
2023-05-13T12:28:27.020Z,98625.44
2023-05-13T12:30:57.587Z,98620.81
2023-05-13T12:33:27.685Z,98632.13
2023-05-13T12:35:54.636Z,98624.81
2023-05-13T12:38:22.510Z,98620.09
2023-05-13T12:40:52.413Z,98614.81
2023-05-13T12:43:20.118Z,98619.41
2023-05-13T12:45:47.290Z,98620.09
2023-05-13T12:48:14.553Z,98615.34
2023-05-13T12:50:41.081Z,98622.19
2023-05-13T12:53:11.803Z,98617.91
2023-05-13T12:55:39.951Z,98613.59
2023-05-13T12:58:07.956Z,98617.59
2023-05-13T13:00:35.777Z,98620.16
2023-05-13T13:03:02.865Z,98616.50
2023-05-13T13:05:29.366Z,98602.56
2023-05-13T13:07:57.400Z,98615.25
2023-05-13T13:10:29.251Z,98610.94
2023-05-13T13:12:56.226Z,98611.59
2023-05-13T13:15:25.060Z,98611.38
2023-05-13T13:17:54.338Z,98621.09
2023-05-13T13:20:23.518Z,98609.22
2023-05-13T13:22:50.760Z,98609.66
2023-05-13T13:25:18.717Z,98604.47
2023-05-13T13:27:45.591Z,98610.22
2023-05-13T13:30:13.149Z,98612.63
2023-05-13T13:32:42.964Z,98606.66
2023-05-13T13:35:10.414Z,98599.00
2023-05-13T13:37:38.050Z,98606.63
2023-05-13T13:40:05.059Z,98610.50
2023-05-13T13:42:43.246Z,98594.25
2023-05-13T13:45:18.999Z,98596.13
2023-05-13T13:47:45.834Z,98601.84
2023-05-13T13:50:16.267Z,98594.75
2023-05-13T13:52:43.089Z,98588.47
2023-05-13T13:55:11.800Z,98591.66
2023-05-13T13:57:39.078Z,98588.78
2023-05-13T14:00:08.720Z,98587.75
2023-05-13T14:02:37.470Z,98575.31
2023-05-13T14:05:07.239Z,98577.56
2023-05-13T14:07:37.427Z,98589.50
2023-05-13T14:10:05.482Z,98586.91
2023-05-13T14:12:35.941Z,98581.63
2023-05-13T14:15:06.860Z,98583.69
2023-05-13T14:17:33.863Z,98575.41
2023-05-13T14:20:00.726Z,98577.44
2023-05-13T14:22:27.944Z,98587.56
2023-05-13T14:24:54.862Z,98576.13
2023-05-13T14:27:24.479Z,98575.84
2023-05-13T14:29:51.528Z,98588.56
2023-05-13T14:32:18.164Z,98587.78
2023-05-13T14:34:48.039Z,98582.44
2023-05-13T14:37:14.538Z,98577.94
2023-05-13T14:39:42.440Z,98568.25
2023-05-13T14:42:11.436Z,98572.19
2023-05-13T14:44:43.610Z,98563.09
2023-05-13T14:47:10.438Z,98566.56
2023-05-13T14:49:39.030Z,98575.00
2023-05-13T14:52:10.187Z,98568.31
2023-05-13T14:54:38.038Z,98582.63
2023-05-13T14:57:07.061Z,98565.00
2023-05-13T14:59:39.012Z,98569.81
2023-05-13T15:02:11.140Z,98562.66
2023-05-13T15:04:39.818Z,98560.59
2023-05-13T15:07:06.949Z,98564.88
2023-05-13T15:09:33.418Z,98562.69
2023-05-13T15:12:00.951Z,98559.66
2023-05-13T15:14:28.579Z,98559.44
2023-05-13T15:17:10.947Z,98549.16
2023-05-13T15:19:38.754Z,98556.06
2023-05-13T15:22:09.002Z,98549.22
2023-05-13T15:24:37.515Z,98554.31
2023-05-13T15:27:05.968Z,98548.94
2023-05-13T15:29:36.290Z,98548.47
2023-05-13T15:32:03.715Z,98552.97
2023-05-13T15:34:30.612Z,98553.59
2023-05-13T15:36:58.791Z,98542.47
2023-05-13T15:39:27.073Z,98539.84
2023-05-13T15:42:00.421Z,98539.38
2023-05-13T15:44:27.926Z,98533.53
2023-05-13T15:46:56.648Z,98540.13
2023-05-13T15:49:23.294Z,98537.53
2023-05-13T15:51:50.114Z,98548.88
2023-05-13T15:54:17.378Z,98539.69
2023-05-13T15:56:44.643Z,98531.94
2023-05-13T15:59:21.250Z,98529.25
2023-05-13T16:01:50.554Z,98532.22
2023-05-13T16:04:18.140Z,98527.44
2023-05-13T16:06:44.631Z,98530.78
2023-05-13T16:09:13.101Z,98526.66
2023-05-13T16:11:45.314Z,98521.38
2023-05-13T16:14:12.613Z,98520.16
2023-05-13T16:16:40.398Z,98508.88
2023-05-13T16:19:08.766Z,98516.34
2023-05-13T16:21:41.972Z,98511.22
2023-05-13T16:24:09.078Z,98505.63
2023-05-13T16:26:37.426Z,98512.84
2023-05-13T16:29:06.920Z,98520.06
2023-05-13T16:31:34.934Z,98522.88
2023-05-13T16:34:04.407Z,98522.06
2023-05-13T16:36:33.874Z,98524.56
2023-05-13T16:39:05.614Z,98508.91
2023-05-13T16:41:35.286Z,98507.31
2023-05-13T16:44:03.726Z,98512.50
2023-05-13T16:46:35.426Z,98519.75
2023-05-13T16:49:04.440Z,98504.50
2023-05-13T16:51:31.024Z,98508.13
2023-05-13T16:53:58.630Z,98493.72
2023-05-13T16:56:26.692Z,98511.38
2023-05-13T16:58:53.663Z,98505.78
2023-05-13T17:01:23.170Z,98500.16
2023-05-13T17:03:50.812Z,98504.19
2023-05-13T17:06:17.621Z,98506.63
2023-05-13T17:08:44.126Z,98504.63
2023-05-13T17:11:16.703Z,98500.63
2023-05-13T17:13:45.732Z,98509.88
2023-05-13T17:16:13.583Z,98493.81
2023-05-13T17:18:40.084Z,98506.66
2023-05-13T17:21:07.018Z,98505.06
2023-05-13T17:23:35.720Z,98507.88
2023-05-13T17:26:02.227Z,98505.84
2023-05-13T17:28:30.890Z,98512.69
2023-05-13T17:30:58.285Z,98505.88
2023-05-13T17:33:25.741Z,98502.22
2023-05-13T17:35:52.500Z,98507.88
2023-05-13T17:38:22.829Z,98502.25
2023-05-13T17:40:51.643Z,98506.66
2023-05-13T17:43:20.005Z,98507.47
2023-05-13T17:45:46.589Z,98515.47
2023-05-13T17:48:15.810Z,98504.22
2023-05-13T17:50:45.504Z,98518.25
2023-05-13T17:53:11.989Z,98505.44
2023-05-13T17:55:38.452Z,98503.41
2023-05-13T17:58:07.034Z,98512.22
2023-05-13T18:00:38.702Z,98509.78
2023-05-13T18:03:05.303Z,98509.00
2023-05-13T18:05:38.229Z,98508.56
2023-05-13T18:08:08.753Z,98514.53
2023-05-13T18:10:40.059Z,98515.31
2023-05-13T18:13:07.879Z,98516.84
2023-05-13T18:15:42.009Z,98512.03
2023-05-13T18:18:11.396Z,98515.19
2023-05-13T18:20:42.456Z,98508.00
2023-05-13T18:23:12.078Z,98504.72
2023-05-13T18:25:55.877Z,98504.94
2023-05-13T18:28:23.440Z,98508.81
2023-05-13T18:30:53.082Z,98514.47
2023-05-13T18:33:20.412Z,98519.09
2023-05-13T18:35:55.298Z,98524.16
2023-05-13T18:38:23.730Z,98517.84
2023-05-13T18:40:50.868Z,98527.91
2023-05-13T18:43:18.799Z,98522.19
2023-05-13T18:45:48.999Z,98534.59
2023-05-13T18:48:18.668Z,98528.25
2023-05-13T18:50:49.498Z,98528.47
2023-05-13T18:53:16.969Z,98537.59
2023-05-13T18:55:44.927Z,98523.13
2023-05-13T18:58:11.669Z,98529.50
2023-05-13T19:00:39.245Z,98533.00
2023-05-13T19:03:08.805Z,98536.56
2023-05-13T19:05:35.807Z,98533.53
2023-05-13T19:08:03.373Z,98536.63
2023-05-13T19:10:29.873Z,98550.72
2023-05-13T19:12:56.872Z,98551.28
2023-05-13T19:15:25.129Z,98554.13
2023-05-13T19:17:52.919Z,98557.47
2023-05-13T19:20:21.196Z,98553.78
2023-05-13T19:22:48.822Z,98553.19
2023-05-13T19:25:20.737Z,98551.59
2023-05-13T19:27:49.490Z,98555.69
2023-05-13T19:30:21.055Z,98558.19
2023-05-13T19:32:48.934Z,98558.81
2023-05-13T19:35:19.445Z,98558.59
2023-05-13T19:37:46.528Z,98562.56
2023-05-13T19:40:13.047Z,98567.66
2023-05-13T19:42:39.637Z,98565.59
2023-05-13T19:45:06.656Z,98561.00
2023-05-13T19:47:35.376Z,98563.84
2023-05-13T19:50:03.764Z,98566.75
2023-05-13T19:52:30.773Z,98570.06
2023-05-13T19:54:57.322Z,98569.63
2023-05-13T19:57:24.847Z,98563.75
2023-05-13T19:59:52.004Z,98570.66
2023-05-13T20:02:21.618Z,98575.88
2023-05-13T20:04:50.910Z,98575.13
2023-05-13T20:07:17.757Z,98567.44
2023-05-13T20:09:47.647Z,98568.09
2023-05-13T20:12:15.147Z,98578.81
2023-05-13T20:14:43.318Z,98581.44
2023-05-13T20:17:10.342Z,98574.88
2023-05-13T20:19:37.003Z,98581.19
2023-05-13T20:22:04.838Z,98576.03
2023-05-13T20:24:31.615Z,98587.56
2023-05-13T20:26:58.096Z,98584.63
2023-05-13T20:29:24.914Z,98581.34
2023-05-13T20:31:51.655Z,98575.16
2023-05-13T20:34:18.382Z,98577.59
2023-05-13T20:36:46.438Z,98567.44
2023-05-13T20:39:14.797Z,98575.50
2023-05-13T20:41:41.355Z,98569.22
2023-05-13T20:44:07.841Z,98575.50
2023-05-13T20:46:37.492Z,98567.78
2023-05-13T20:49:04.381Z,98563.84
2023-05-13T20:51:31.003Z,98567.53
2023-05-13T20:53:57.555Z,98567.72
2023-05-13T20:56:24.063Z,98563.78
2023-05-13T20:58:51.833Z,98550.13
2023-05-13T21:01:19.779Z,98557.66
2023-05-13T21:03:54.616Z,98559.91
2023-05-13T21:06:21.128Z,98560.44
2023-05-13T21:08:47.735Z,98557.22
2023-05-13T21:11:16.372Z,98553.00
2023-05-13T21:13:43.052Z,98558.84
2023-05-13T21:16:10.841Z,98558.13
2023-05-13T21:18:41.708Z,98561.63
2023-05-13T21:21:12.309Z,98554.91
2023-05-13T21:23:40.579Z,98560.47
2023-05-13T21:26:07.505Z,98559.56
2023-05-13T21:28:35.902Z,98569.94
2023-05-13T21:31:02.431Z,98559.25
2023-05-13T21:33:29.320Z,98560.72
2023-05-13T21:35:56.524Z,98560.19
2023-05-13T21:38:24.366Z,98551.56
2023-05-13T21:40:52.027Z,98546.16
2023-05-13T21:43:18.516Z,98549.94
2023-05-13T21:45:51.440Z,98545.75
2023-05-13T21:48:19.607Z,98550.66
2023-05-13T21:50:46.370Z,98553.44
2023-05-13T21:53:13.742Z,98554.44
2023-05-13T21:55:43.038Z,98559.00
2023-05-13T21:58:11.371Z,98557.66
2023-05-13T22:00:38.138Z,98560.97
2023-05-13T22:03:08.656Z,98560.16
2023-05-13T22:05:46.940Z,98559.78
2023-05-13T22:08:14.792Z,98554.47
2023-05-13T22:10:42.898Z,98554.88
2023-05-13T22:13:09.975Z,98558.38
2023-05-13T22:15:45.575Z,98563.41
2023-05-13T22:18:14.473Z,98557.38
2023-05-13T22:20:42.701Z,98548.38
2023-05-13T22:23:16.674Z,98554.47
2023-05-13T22:25:46.467Z,98552.38
2023-05-13T22:28:13.070Z,98555.13
2023-05-13T22:30:39.578Z,98557.59
2023-05-13T22:33:07.862Z,98554.16
2023-05-13T22:35:36.498Z,98555.56
2023-05-13T22:38:04.144Z,98551.16
2023-05-13T22:40:30.862Z,98555.31
2023-05-13T22:42:57.342Z,98557.00
2023-05-13T22:45:23.809Z,98547.63
2023-05-13T22:47:51.411Z,98550.28
2023-05-13T22:50:19.004Z,98551.97
2023-05-13T22:52:46.695Z,98558.19
2023-05-13T22:55:13.532Z,98551.06
2023-05-13T22:57:41.061Z,98549.06
2023-05-13T23:00:10.750Z,98546.38
2023-05-13T23:02:37.256Z,98538.69
2023-05-13T23:05:05.387Z,98547.13
2023-05-13T23:07:31.904Z,98541.47
2023-05-13T23:10:06.215Z,98542.56
2023-05-13T23:12:33.351Z,98537.34
2023-05-13T23:15:00.327Z,98531.91
2023-05-13T23:17:30.871Z,98539.09
2023-05-13T23:20:01.082Z,98549.00
2023-05-13T23:22:27.647Z,98541.63
2023-05-13T23:24:54.230Z,98554.66
2023-05-13T23:27:20.789Z,98551.88
2023-05-13T23:29:49.292Z,98554.16
2023-05-13T23:32:17.177Z,98552.59
2023-05-13T23:34:45.517Z,98564.19
2023-05-13T23:37:13.406Z,98553.41
2023-05-13T23:39:41.162Z,98543.19
2023-05-13T23:42:08.925Z,98553.78
2023-05-13T23:44:37.296Z,98540.59
2023-05-13T23:47:07.908Z,98542.78
2023-05-13T23:49:37.597Z,98536.72
2023-05-13T23:52:05.452Z,98540.16
2023-05-13T23:54:33.381Z,98535.66
2023-05-13T23:57:00.457Z,98533.31
2023-05-13T23:59:27.183Z,98537.00
